Time;durP1;ratioP1;P1;durP2;ratioP2;P2;SDS_P1;SDS_P2;PMS_P1;PMS_P2;Temp;Humidity;BMP_temperature;BMP_pressure;BME280_temperature;BME280_humidity;BME280_pressure;Samples;Min_cycle;Max_cycle;Signal;HPM_P1;HPM_P2
2021/08/26 00:00:29;;;;;;;3.95;1.15;;;;;;;11.78;100.00;100725.19;5009216;28;20605;-77
2021/08/26 00:06:59;;;;;;;5.88;1.52;;;;;;;11.74;100.00;100729.34;5011530;28;20399;-78
2021/08/26 00:10:08;;;;;;;4.05;1.02;;;;;;;11.76;100.00;100724.13;4999677;28;20053;-76
2021/08/26 00:13:13;;;;;;;2.50;1.15;;;;;;;11.76;100.00;100727.66;5014845;28;20092;-78
2021/08/26 00:16:21;;;;;;;3.38;1.13;;;;;;;11.80;100.00;100717.13;5019419;28;20100;-77
2021/08/26 00:19:24;;;;;;;3.83;1.60;;;;;;;11.81;100.00;100718.69;5030528;28;20088;-78
2021/08/26 00:22:27;;;;;;;3.53;1.15;;;;;;;11.86;100.00;100715.28;5031582;28;20906;-78
2021/08/26 00:25:30;;;;;;;3.42;2.35;;;;;;;11.89;100.00;100711.56;4990341;28;20131;-77
2021/08/26 00:28:34;;;;;;;2.20;0.73;;;;;;;11.98;100.00;100710.78;4990612;28;20064;-78
2021/08/26 00:31:36;;;;;;;3.58;1.38;;;;;;;11.96;100.00;100708.47;4990126;28;20048;-78
2021/08/26 00:34:39;;;;;;;4.28;1.65;;;;;;;12.00;100.00;100711.88;4990806;28;20159;-78
2021/08/26 00:37:42;;;;;;;1.67;0.82;;;;;;;12.01;100.00;100705.06;4992236;28;20056;-78
2021/08/26 00:40:45;;;;;;;8.00;2.75;;;;;;;12.02;100.00;100712.19;4990542;28;20211;-78
2021/08/26 00:43:48;;;;;;;9.95;2.15;;;;;;;12.07;100.00;100711.56;4989320;28;20092;-77
2021/08/26 00:46:51;;;;;;;5.82;1.50;;;;;;;12.10;100.00;100713.44;4990028;28;20056;-78
2021/08/26 00:49:54;;;;;;;2.22;1.00;;;;;;;12.23;100.00;100709.72;4993731;28;20183;-78
2021/08/26 00:52:57;;;;;;;6.05;1.83;;;;;;;12.35;100.00;100720.72;4992902;28;20669;-77
2021/08/26 00:56:00;;;;;;;3.30;1.15;;;;;;;12.52;100.00;100721.94;4992050;28;20088;-78
2021/08/26 00:59:06;;;;;;;2.72;1.38;;;;;;;12.61;100.00;100719.13;4992632;28;20056;-77
2021/08/26 01:02:28;;;;;;;2.90;0.93;;;;;;;12.70;100.00;100715.53;4992177;28;20437;-77
2021/08/26 01:05:46;;;;;;;2.13;0.95;;;;;;;12.80;100.00;100708.69;4994752;28;20139;-78
2021/08/26 01:08:58;;;;;;;4.97;1.30;;;;;;;12.91;100.00;100711.75;4982044;28;20302;-78
2021/08/26 01:12:02;;;;;;;2.80;1.38;;;;;;;12.96;100.00;100705.53;4974577;28;20491;-78
2021/08/26 01:15:07;;;;;;;7.22;1.45;;;;;;;13.03;100.00;100710.78;4973914;28;20407;-78
2021/08/26 01:18:10;;;;;;;3.03;1.30;;;;;;;13.10;100.00;100715.31;4973423;28;21109;-78
2021/08/26 01:21:15;;;;;;;6.95;1.20;;;;;;;13.14;100.00;100704.72;4973209;28;20080;-77
2021/08/26 01:24:21;;;;;;;3.92;0.88;;;;;;;13.16;100.00;100708.59;4972770;28;20876;-77
2021/08/26 01:27:31;;;;;;;3.53;1.50;;;;;;;13.28;100.00;100702.00;4973097;28;20704;-77
2021/08/26 01:30:38;;;;;;;1.65;0.73;;;;;;;13.35;100.00;100704.47;4973602;28;20163;-76
2021/08/26 01:33:41;;;;;;;2.65;0.95;;;;;;;13.35;100.00;100710.06;4972880;28;20104;-77
2021/08/26 01:36:45;;;;;;;1.92;0.82;;;;;;;13.34;100.00;100697.31;4972724;28;20172;-76
2021/08/26 01:39:53;;;;;;;7.70;1.50;;;;;;;13.41;100.00;100696.97;4972985;28;20131;-76
2021/08/26 01:42:57;;;;;;;4.22;1.50;;;;;;;13.45;100.00;100697.56;4972714;28;20133;-77
2021/08/26 01:46:00;;;;;;;3.08;0.95;;;;;;;13.53;100.00;100692.41;4972336;28;20096;-76
2021/08/26 01:49:03;;;;;;;4.68;1.50;;;;;;;13.62;100.00;100681.91;4972709;28;20407;-76
2021/08/26 01:52:06;;;;;;;5.07;2.17;;;;;;;13.67;100.00;100670.06;4974012;28;20430;-77
2021/08/26 01:55:09;;;;;;;4.13;1.13;;;;;;;13.75;100.00;100664.13;4972990;28;20222;-77
2021/08/26 01:58:13;;;;;;;5.50;1.65;;;;;;;13.84;100.00;100661.25;4972274;28;20049;-76
2021/08/26 02:01:17;;;;;;;7.32;1.60;;;;;;;13.87;100.00;100665.88;4993677;28;21073;-76
2021/08/26 02:04:20;;;;;;;4.07;1.85;;;;;;;13.91;100.00;100653.25;4971997;28;20725;-77
2021/08/26 02:07:23;;;;;;;4.40;1.92;;;;;;;14.00;100.00;100655.19;4976090;28;20111;-77
2021/08/26 02:10:26;;;;;;;3.20;1.30;;;;;;;14.06;100.00;100656.06;4992897;28;20053;-76
2021/08/26 02:13:29;;;;;;;4.18;1.40;;;;;;;14.07;100.00;100661.22;4993964;28;20557;-77
2021/08/26 02:16:33;;;;;;;3.17;1.35;;;;;;;14.12;100.00;100659.78;4991305;28;20716;-76
2021/08/26 02:19:36;;;;;;;3.65;0.95;;;;;;;14.16;100.00;100660.34;4992163;28;20499;-78
2021/08/26 02:22:39;;;;;;;7.20;0.93;;;;;;;14.18;100.00;100652.25;4992485;28;20640;-76
2021/08/26 02:25:42;;;;;;;2.83;1.10;;;;;;;14.18;100.00;100652.25;4990642;28;20557;-76
2021/08/26 02:28:45;;;;;;;3.85;1.00;;;;;;;14.20;100.00;100661.72;4991542;28;20258;-77
2021/08/26 02:31:48;;;;;;;2.05;0.80;;;;;;;14.21;100.00;100652.03;4995320;28;20054;-76
2021/08/26 02:34:51;;;;;;;2.72;0.98;;;;;;;14.26;100.00;100657.00;4996073;28;20184;-76
2021/08/26 02:37:54;;;;;;;4.90;1.60;;;;;;;14.30;100.00;100665.22;4995494;28;20138;-76
2021/08/26 02:40:57;;;;;;;2.92;1.63;;;;;;;14.33;100.00;100653.06;4995451;28;20134;-76
2021/08/26 02:44:00;;;;;;;7.93;2.03;;;;;;;14.40;100.00;100658.28;4995082;28;21136;-76
2021/08/26 02:47:04;;;;;;;2.80;1.25;;;;;;;14.46;100.00;100647.94;4995466;28;20060;-77
2021/08/26 02:50:07;;;;;;;3.78;1.13;;;;;;;14.50;100.00;100645.72;4983670;28;20462;-76
2021/08/26 02:53:10;;;;;;;2.75;1.15;;;;;;;14.57;100.00;100641.75;4995997;28;20194;-75
2021/08/26 02:56:13;;;;;;;3.75;1.73;;;;;;;14.59;100.00;100637.22;4996299;28;20822;-78
2021/08/26 02:59:16;;;;;;;2.60;1.13;;;;;;;14.60;100.00;100638.75;4996917;28;20079;-78
2021/08/26 03:02:19;;;;;;;7.05;2.20;;;;;;;14.63;100.00;100643.41;4996761;28;20052;-79
2021/08/26 03:05:22;;;;;;;6.30;1.70;;;;;;;14.67;100.00;100643.97;4996295;28;20053;-79
2021/08/26 03:08:24;;;;;;;8.68;2.65;;;;;;;14.70;100.00;100642.22;4995655;28;20385;-79
2021/08/26 03:11:27;;;;;;;5.68;1.83;;;;;;;14.66;100.00;100642.41;4996159;28;20126;-79
2021/08/26 03:14:31;;;;;;;3.03;1.80;;;;;;;14.71;100.00;100644.53;4996134;28;20128;-79
2021/08/26 03:17:34;;;;;;;3.67;1.40;;;;;;;14.73;100.00;100636.41;4996271;28;20881;-77
2021/08/26 03:20:39;;;;;;;2.85;1.77;;;;;;;14.79;100.00;100648.50;4996512;28;20053;-77
2021/08/26 03:23:42;;;;;;;3.53;0.80;;;;;;;14.79;100.00;100644.94;4996074;28;20132;-77
2021/08/26 03:26:45;;;;;;;3.17;0.98;;;;;;;14.83;100.00;100640.69;4996579;28;20931;-78
2021/08/26 03:29:48;;;;;;;1.88;0.52;;;;;;;14.89;100.00;100632.34;4983739;28;20231;-77
2021/08/26 03:32:51;;;;;;;2.53;0.88;;;;;;;14.96;100.00;100632.72;4995968;28;20056;-77
2021/08/26 03:35:54;;;;;;;4.75;1.02;;;;;;;14.96;100.00;100627.13;4996469;28;20048;-76
2021/08/26 03:38:57;;;;;;;2.72;0.40;;;;;;;14.99;100.00;100620.50;4996503;28;20076;-78
2021/08/26 03:42:00;;;;;;;1.70;0.70;;;;;;;14.99;100.00;100634.53;4996068;28;20127;-77
2021/08/26 03:45:04;;;;;;;3.38;0.70;;;;;;;15.03;100.00;100629.50;4995640;28;20213;-77
2021/08/26 03:48:07;;;;;;;3.13;1.27;;;;;;;15.05;100.00;100623.41;4996048;28;20053;-79
2021/08/26 03:51:10;;;;;;;3.33;1.15;;;;;;;15.03;100.00;100626.69;4995837;28;20122;-78
2021/08/26 03:54:13;;;;;;;6.43;1.73;;;;;;;15.05;100.00;100623.41;4997447;28;20119;-78
2021/08/26 03:57:16;;;;;;;4.68;0.90;;;;;;;15.06;100.00;100625.72;4996078;28;20085;-78
2021/08/26 04:00:19;;;;;;;4.38;1.15;;;;;;;15.06;100.00;100628.53;4995607;28;20166;-77
2021/08/26 04:03:22;;;;;;;6.45;0.82;;;;;;;15.07;100.00;100629.31;4994275;28;20049;-77
2021/08/26 04:06:25;;;;;;;3.80;1.60;;;;;;;15.09;100.00;100638.00;4994806;28;20060;-78
2021/08/26 04:09:28;;;;;;;1.42;0.63;;;;;;;15.08;100.00;100623.19;4976889;28;20052;-77
2021/08/26 04:12:31;;;;;;;3.25;0.80;;;;;;;15.07;100.00;100621.66;4976359;28;20378;-77
2021/08/26 04:15:34;;;;;;;2.28;0.88;;;;;;;15.10;100.00;100620.69;4976492;28;21037;-77
2021/08/26 04:18:37;;;;;;;3.40;0.80;;;;;;;15.10;100.00;100619.91;4976091;28;20103;-78
2021/08/26 04:21:40;;;;;;;5.13;1.08;;;;;;;15.12;100.00;100631.41;4975029;28;20044;-77
2021/08/26 04:24:42;;;;;;;2.90;0.88;;;;;;;15.10;100.00;100622.72;4978551;28;20206;-77
2021/08/26 04:27:45;;;;;;;4.43;0.73;;;;;;;15.12;100.00;100629.38;4979718;28;20045;-78
2021/08/26 04:30:48;;;;;;;1.88;0.68;;;;;;;15.14;100.00;100621.25;4980160;28;20064;-78
2021/08/26 04:33:51;;;;;;;8.48;1.40;;;;;;;15.16;100.00;100618.72;4979106;28;20255;-77
2021/08/26 04:36:54;;;;;;;5.55;1.10;;;;;;;15.19;100.00;100616.97;4978255;28;20147;-77
2021/08/26 04:39:57;;;;;;;1.58;0.65;;;;;;;15.20;100.00;100613.66;4978502;28;20053;-78
2021/08/26 04:43:00;;;;;;;4.55;0.88;;;;;;;15.22;100.00;100618.03;4978196;28;20525;-78
2021/08/26 04:46:03;;;;;;;4.97;0.98;;;;;;;15.24;100.00;100612.72;4977312;28;20053;-78
2021/08/26 04:49:06;;;;;;;4.60;1.60;;;;;;;15.30;100.00;100621.97;5020850;28;20053;-78
2021/08/26 04:52:11;;;;;;;3.75;1.00;;;;;;;15.33;100.00;100623.81;5020988;28;20606;-79
2021/08/26 04:55:15;;;;;;;2.42;0.85;;;;;;;15.30;100.00;100610.75;5034273;28;20399;-77
2021/08/26 04:58:18;;;;;;;4.78;0.70;;;;;;;15.31;100.00;100613.03;5022593;28;20057;-79
2021/08/26 05:01:21;;;;;;;4.05;1.23;;;;;;;15.28;100.00;100618.88;5033301;28;20663;-79
2021/08/26 05:04:24;;;;;;;2.53;0.93;;;;;;;15.32;100.00;100619.44;5021545;28;20095;-79
2021/08/26 05:07:27;;;;;;;3.08;0.82;;;;;;;15.35;100.00;100615.66;5032910;28;20091;-79
2021/08/26 05:10:29;;;;;;;5.20;0.38;;;;;;;15.37;100.00;100610.34;5034261;28;20188;-79
2021/08/26 05:13:32;;;;;;;1.42;0.50;;;;;;;15.37;100.00;100615.94;5034100;28;20052;-79
2021/08/26 05:16:35;;;;;;;6.57;1.15;;;;;;;15.38;100.00;100621.06;5034253;28;20175;-78
2021/08/26 05:19:38;;;;;;;1.45;0.68;;;;;;;15.35;100.00;100619.25;5021513;28;20051;-77
2021/08/26 05:22:41;;;;;;;1.92;0.65;;;;;;;15.33;100.00;100621.00;5033670;28;20072;-77
2021/08/26 05:25:44;;;;;;;1.20;0.50;;;;;;;15.25;100.00;100617.03;5032156;28;20072;-77
2021/08/26 05:28:47;;;;;;;2.38;1.15;;;;;;;15.25;100.00;100617.81;5021670;28;20073;-78
2021/08/26 05:31:50;;;;;;;3.47;0.68;;;;;;;15.24;100.00;100619.09;5033871;28;20049;-77
2021/08/26 05:34:52;;;;;;;1.98;0.40;;;;;;;15.26;100.00;100621.41;5032687;28;20299;-79
2021/08/26 05:37:56;;;;;;;1.85;0.80;;;;;;;15.30;100.00;100622.75;5036289;28;20133;-77
2021/08/26 05:40:59;;;;;;;2.35;1.00;;;;;;;15.38;100.00;100620.28;5034189;28;20103;-78
2021/08/26 05:44:01;;;;;;;6.07;1.05;;;;;;;15.46;100.00;100622.25;5033723;28;20060;-78
2021/08/26 05:47:05;;;;;;;1.20;0.50;;;;;;;15.49;100.00;100626.06;5020889;28;20064;-78
2021/08/26 05:50:08;;;;;;;4.13;0.90;;;;;;;15.46;100.00;100625.06;5021477;28;20083;-78
2021/08/26 05:53:11;;;;;;;1.08;0.43;;;;;;;15.49;100.00;100628.88;5033797;28;20071;-78
2021/08/26 05:56:14;;;;;;;1.27;0.22;;;;;;;15.50;100.00;100636.84;5033693;28;20075;-78
2021/08/26 05:59:16;;;;;;;1.45;0.40;;;;;;;15.55;100.00;100635.38;5033638;28;20125;-77
2021/08/26 06:02:19;;;;;;;1.45;0.73;;;;;;;15.63;100.00;100639.28;5020954;28;20052;-78
2021/08/26 06:05:22;;;;;;;1.40;0.30;;;;;;;15.59;100.00;100639.47;5033183;28;20048;-78
2021/08/26 06:08:29;;;;;;;1.50;0.77;;;;;;;15.53;100.00;100643.47;5033336;28;20411;-78
2021/08/26 06:11:31;;;;;;;3.20;0.47;;;;;;;15.42;100.00;100646.13;5033514;28;20430;-78
2021/08/26 06:14:34;;;;;;;1.63;0.45;;;;;;;15.31;100.00;100640.38;5021008;28;20132;-78
2021/08/26 06:17:37;;;;;;;1.45;0.22;;;;;;;15.22;100.00;100640.50;5032573;28;20052;-78
2021/08/26 06:20:42;;;;;;;0.20;0.13;;;;;;;15.13;100.00;100633.75;5032530;28;20103;-78
2021/08/26 06:23:45;;;;;;;0.95;0.40;;;;;;;15.04;100.00;100641.50;5030515;28;20593;-77
2021/08/26 06:26:47;;;;;;;0.73;0.20;;;;;;;15.00;100.00;100650.13;5030467;28;20072;-78
2021/08/26 06:29:50;;;;;;;0.65;0.10;;;;;;;14.99;100.00;100654.16;5031319;28;20051;-78
2021/08/26 06:32:53;;;;;;;0.30;0.10;;;;;;;14.97;100.00;100644.69;5031361;28;20060;-78
2021/08/26 06:35:56;;;;;;;0.28;0.25;;;;;;;14.92;100.00;100637.00;5032947;28;20068;-78
2021/08/26 06:38:59;;;;;;;0.45;0.38;;;;;;;14.90;100.00;100648.66;5032905;28;20142;-79
2021/08/26 06:42:01;;;;;;;0.40;0.22;;;;;;;14.88;100.00;100648.38;5032868;28;20543;-78
2021/08/26 06:45:06;;;;;;;0.47;0.17;;;;;;;14.91;100.00;100647.44;5031893;28;20137;-79
2021/08/26 06:48:09;;;;;;;0.40;0.20;;;;;;;15.01;100.00;100651.66;5026962;28;20052;-79
2021/08/26 06:51:12;;;;;;;0.30;0.10;;;;;;;15.04;100.00;100659.09;5032980;28;20520;-79
2021/08/26 06:54:15;;;;;;;0.57;0.10;;;;;;;15.10;100.00;100670.41;5031921;28;20095;-79
2021/08/26 06:57:18;;;;;;;1.23;0.13;;;;;;;15.16;100.00;100669.22;5032081;28;20103;-78
2021/08/26 07:00:23;;;;;;;0.10;0.10;;;;;;;15.27;100.00;100667.88;5033074;28;20087;-79
2021/08/26 07:03:26;;;;;;;0.52;0.30;;;;;;;15.47;100.00;100665.09;5032400;28;20454;-79
2021/08/26 07:06:29;;;;;;;1.05;0.20;;;;;;;15.66;100.00;100666.38;5033271;28;20055;-79
2021/08/26 07:09:32;;;;;;;1.33;0.50;;;;;;;15.83;100.00;100653.34;5013418;28;20515;-79
2021/08/26 07:12:35;;;;;;;0.47;0.20;;;;;;;15.93;100.00;100660.34;5011548;28;20088;-78
2021/08/26 07:15:39;;;;;;;0.45;0.25;;;;;;;16.00;100.00;100657.13;5012711;28;20060;-79
2021/08/26 07:18:42;;;;;;;0.43;0.20;;;;;;;16.04;100.00;100663.28;5013061;28;20088;-79
2021/08/26 07:21:45;;;;;;;1.05;0.30;;;;;;;16.08;100.00;100661.03;5013643;28;20407;-79
2021/08/26 07:24:47;;;;;;;0.90;0.20;;;;;;;16.19;100.00;100669.59;5012816;28;20049;-79
2021/08/26 07:27:50;;;;;;;0.20;0.00;;;;;;;16.25;100.00;100659.16;5012880;28;20132;-79
2021/08/26 07:30:53;;;;;;;3.15;0.10;;;;;;;16.20;100.00;100664.75;5012667;28;20052;-79
2021/08/26 07:33:56;;;;;;;0.10;0.10;;;;;;;16.14;100.00;100661.84;5013298;28;20103;-79
2021/08/26 07:36:58;;;;;;;0.70;0.10;;;;;;;16.02;100.00;100665.81;5013250;28;20052;-79
2021/08/26 07:40:03;;;;;;;0.10;0.00;;;;;;;15.86;100.00;100674.81;5012896;28;20056;-79
2021/08/26 07:43:05;;;;;;;0.22;0.13;;;;;;;15.73;100.00;100674.38;5012759;28;20404;-79
2021/08/26 07:46:08;;;;;;;0.10;0.00;;;;;;;15.55;100.00;100667.00;5012963;28;20107;-78
2021/08/26 07:49:11;;;;;;;0.75;0.30;;;;;;;15.46;100.00;100669.19;5012952;28;20122;-79
2021/08/26 07:52:15;;;;;;;0.22;0.10;;;;;;;15.45;100.00;100673.25;5013098;28;20096;-79
2021/08/26 07:55:18;;;;;;;0.25;0.22;;;;;;;15.38;100.00;100665.19;5012988;28;20056;-79
2021/08/26 07:58:21;;;;;;;0.10;0.00;;;;;;;15.32;100.00;100675.56;5015198;28;20108;-79
2021/08/26 08:01:24;;;;;;;2.83;0.20;;;;;;;15.35;100.00;100674.59;5016136;28;20111;-79
2021/08/26 08:04:27;;;;;;;0.60;0.20;;;;;;;15.33;100.00;100682.75;5016603;28;20056;-79
2021/08/26 08:07:30;;;;;;;0.30;0.10;;;;;;;15.34;100.00;100685.06;5022284;28;20582;-79
2021/08/26 08:10:33;;;;;;;3.47;0.40;;;;;;;15.33;100.00;100671.50;5036748;28;20052;-79
2021/08/26 08:13:36;;;;;;;3.13;0.47;;;;;;;15.29;100.00;100682.94;5036530;28;20466;-79
2021/08/26 08:16:38;;;;;;;1.30;0.57;;;;;;;15.28;100.00;100680.63;5036385;28;20060;-78
2021/08/26 08:19:41;;;;;;;0.47;0.30;;;;;;;15.24;100.00;100668.81;5036413;28;20048;-78
2021/08/26 08:22:44;;;;;;;0.75;0.28;;;;;;;15.26;100.00;100680.34;5036385;28;20057;-79
2021/08/26 08:25:47;;;;;;;0.32;0.17;;;;;;;15.28;100.00;100680.63;5036165;28;20107;-79
2021/08/26 08:28:50;;;;;;;2.25;0.10;;;;;;;15.28;100.00;100680.63;5036281;28;20399;-78
2021/08/26 08:31:53;;;;;;;1.48;0.50;;;;;;;15.30;100.00;100690.09;5035975;28;20064;-79
2021/08/26 08:34:56;;;;;;;3.10;0.68;;;;;;;15.34;100.00;100681.47;5035933;28;20056;-79
2021/08/26 08:37:59;;;;;;;1.85;0.47;;;;;;;15.34;100.00;100685.06;5036230;28;20102;-78
2021/08/26 08:41:02;;;;;;;0.55;0.52;;;;;;;15.44;100.00;100685.75;5036436;28;20076;-78
2021/08/26 08:44:06;;;;;;;6.30;0.45;;;;;;;15.50;100.00;100680.97;5035796;28;20160;-79
2021/08/26 08:47:10;;;;;;;1.23;0.50;;;;;;;15.66;100.00;100677.59;5035578;28;20045;-79
2021/08/26 08:50:13;;;;;;;1.30;1.08;;;;;;;15.74;100.00;100678.75;5035093;28;20075;-77
2021/08/26 08:53:17;;;;;;;4.78;0.93;;;;;;;15.91;100.00;100682.53;5036105;28;20131;-77
2021/08/26 08:56:25;;;;;;;4.00;0.73;;;;;;;16.14;100.00;100675.91;5035482;28;20471;-77
2021/08/26 08:59:29;;;;;;;3.28;1.30;;;;;;;16.27;100.00;100681.94;5035767;28;20048;-77
2021/08/26 09:02:32;;;;;;;0.63;0.32;;;;;;;16.36;100.00;100678.97;5035147;28;20052;-76
2021/08/26 09:05:54;;;;;;;2.47;0.70;;;;;;;16.49;100.00;100676.53;5035517;28;20056;-77
2021/08/26 09:09:03;;;;;;;3.60;0.68;;;;;;;16.66;100.00;100673.91;5035243;28;20095;-79
2021/08/26 09:12:06;;;;;;;2.28;0.75;;;;;;;16.78;100.00;100669.94;5023194;28;20556;-79
2021/08/26 09:15:13;;;;;;;10.43;1.35;;;;;;;16.90;100.00;100667.97;5035482;28;20060;-81
2021/08/26 09:18:18;;;;;;;6.93;0.80;;;;;;;17.00;100.00;100669.34;5035156;28;20122;-78
2021/08/26 09:21:37;;;;;;;5.18;0.63;;;;;;;17.16;100.00;100672.28;5035231;28;20056;-78
2021/08/26 09:24:52;;;;;;;1.73;0.50;;;;;;;17.25;100.00;100674.13;5022774;28;20480;-78
2021/08/26 09:27:55;;;;;;;4.38;0.50;;;;;;;17.38;100.00;100677.28;5035152;28;20064;-78
2021/08/26 09:31:11;;;;;;;1.70;0.50;;;;;;;17.42;100.00;100677.81;5034847;28;20052;-78
2021/08/26 09:34:19;;;;;;;13.23;0.60;;;;;;;17.49;100.00;100682.97;5034876;28;20128;-78
2021/08/26 09:37:21;;;;;;;0.85;0.20;;;;;;;17.65;100.00;100673.09;5034964;28;20056;-78
2021/08/26 09:40:27;;;;;;;2.22;1.40;;;;;;;17.77;100.00;100686.75;5034746;28;20044;-80
2021/08/26 09:43:31;;;;;;;1.52;0.50;;;;;;;17.86;100.00;100686.53;5034985;28;20103;-78
2021/08/26 09:46:35;;;;;;;1.73;0.43;;;;;;;18.00;100.00;100682.72;5034757;28;20117;-78
2021/08/26 09:49:40;;;;;;;0.73;0.38;;;;;;;18.18;100.00;100687.94;5035333;28;20048;-81
2021/08/26 09:52:52;;;;;;;5.65;1.65;;;;;;;18.38;100.00;100683.34;5035217;28;20454;-80
2021/08/26 09:55:57;;;;;;;1.70;0.40;;;;;;;18.42;100.00;100678.25;5034744;28;20052;-80
2021/08/26 09:59:04;;;;;;;3.92;1.00;;;;;;;18.41;100.00;100679.53;5035049;28;20123;-81
2021/08/26 10:02:08;;;;;;;2.03;0.55;;;;;;;18.41;100.00;100679.53;5034874;28;20518;-81
2021/08/26 10:05:10;;;;;;;1.02;0.30;;;;;;;18.43;100.00;100677.72;5034615;28;20044;-80
2021/08/26 10:08:13;;;;;;;2.38;0.57;;;;;;;18.48;100.00;100676.22;5021338;28;20048;-79
2021/08/26 10:11:19;;;;;;;10.02;1.23;;;;;;;18.50;100.00;100682.13;5034037;28;20107;-78
2021/08/26 10:14:22;;;;;;;1.48;0.52;;;;;;;18.56;100.00;100677.28;5034327;28;20467;-78
2021/08/26 10:17:25;;;;;;;1.30;0.73;;;;;;;18.63;100.00;100671.09;5034037;28;20048;-80
2021/08/26 10:20:28;;;;;;;0.47;0.20;;;;;;;18.64;100.00;100672.66;5033492;28;20542;-78
2021/08/26 10:23:31;;;;;;;2.13;0.52;;;;;;;18.70;100.00;100665.75;5033852;28;20400;-78
2021/08/26 10:26:36;;;;;;;0.73;0.47;;;;;;;18.76;100.00;100665.72;5033904;28;20190;-78
2021/08/26 10:29:45;;;;;;;2.72;0.52;;;;;;;18.88;100.00;100670.13;5022002;28;20099;-78
2021/08/26 10:33:13;;;;;;;3.30;1.25;;;;;;;18.97;100.00;100650.09;5033649;28;20048;-80
2021/08/26 10:36:15;;;;;;;3.78;0.15;;;;;;;19.06;100.00;100649.81;5021437;28;20537;-78
2021/08/26 10:39:37;;;;;;;6.55;0.43;;;;;;;19.18;100.00;100654.16;5034195;28;20084;-80
2021/08/26 10:42:42;;;;;;;4.38;0.43;;;;;;;19.28;100.00;100652.59;5021634;28;20048;-78
2021/08/26 10:45:50;;;;;;;2.00;0.85;;;;;;;19.37;100.00;100648.75;5033488;28;20111;-81
2021/08/26 10:49:00;;;;;;;2.05;0.20;;;;;;;19.38;100.00;100636.94;5033701;28;20509;-81
2021/08/26 10:52:03;;;;;;;;;;;;;;;19.40;100.00;100637.22;5032610;28;20068;-80
2021/08/26 10:55:25;;;;;;;1.42;0.65;;;;;;;19.44;100.00;100640.53;5030747;28;19931;-79
2021/08/26 10:58:33;;;;;;;0.75;0.10;;;;;;;19.35;100.00;100649.28;5031426;28;20102;-79
2021/08/26 11:01:38;;;;;;;1.48;0.22;;;;;;;19.29;100.00;100653.38;5020706;28;21061;-79
2021/08/26 11:04:41;;;;;;;2.55;0.22;;;;;;;19.39;100.00;100651.84;5016764;28;20114;-79
2021/08/26 11:07:44;;;;;;;3.20;0.50;;;;;;;19.43;100.00;100650.28;5031566;28;20084;-79
2021/08/26 11:10:47;;;;;;;2.78;0.38;;;;;;;19.50;100.00;100652.59;5021551;28;20064;-79
2021/08/26 11:14:11;;;;;;;0.75;0.45;;;;;;;19.56;100.00;100647.69;5026416;28;20045;-78
2021/08/26 11:17:25;;;;;;;4.72;0.45;;;;;;;19.62;100.00;100639.94;5027842;28;20095;-79
2021/08/26 11:20:31;;;;;;;4.88;0.32;;;;;;;19.72;100.00;100650.97;5023477;28;20072;-78
2021/08/26 11:23:45;;;;;;;5.22;0.43;;;;;;;19.75;100.00;100653.50;5026185;28;20056;-78
2021/08/26 11:26:49;;;;;;;1.17;0.25;;;;;;;19.67;100.00;100646.88;5028709;28;20071;-79
2021/08/26 11:29:53;;;;;;;5.82;0.80;;;;;;;19.57;100.00;100646.41;5031770;28;20060;-78
2021/08/26 11:32:56;;;;;;;0.55;0.22;;;;;;;19.68;100.00;100639.94;5030323;28;20154;-78
2021/08/26 11:35:59;;;;;;;1.65;0.45;;;;;;;19.77;100.00;100647.34;5030437;28;20041;-79
2021/08/26 11:39:02;;;;;;;2.65;0.40;;;;;;;19.84;100.00;100641.16;5030824;28;20552;-78
2021/08/26 11:42:10;;;;;;;1.95;0.40;;;;;;;19.91;100.00;100647.03;5019022;28;20045;-79
2021/08/26 11:45:27;;;;;;;1.27;0.38;;;;;;;20.01;100.00;100642.59;5032699;28;20052;-79
2021/08/26 11:48:30;;;;;;;1.30;0.10;;;;;;;20.04;100.00;100633.09;5032806;28;20541;-79
2021/08/26 11:51:33;;;;;;;3.40;0.60;;;;;;;20.06;100.00;100646.69;5028303;28;20056;-79
2021/08/26 11:54:39;;;;;;;1.50;0.43;;;;;;;19.97;100.00;100644.16;5033420;28;20165;-79
2021/08/26 11:57:42;;;;;;;0.50;0.20;;;;;;;20.21;100.00;100641.50;5032132;28;20048;-78
2021/08/26 12:00:49;;;;;;;1.38;0.20;;;;;;;20.42;100.00;100637.00;5031919;28;20129;-78
2021/08/26 12:03:54;;;;;;;1.80;0.30;;;;;;;20.50;100.00;100640.81;5032042;28;20103;-79
2021/08/26 12:06:57;;;;;;;1.95;0.20;;;;;;;20.18;100.00;100642.53;5032552;28;20107;-79
2021/08/26 12:10:06;;;;;;;5.40;0.50;;;;;;;19.79;100.00;100644.78;5032667;28;20415;-79
2021/08/26 12:13:15;;;;;;;0.90;0.22;;;;;;;19.65;100.00;100638.91;5032361;28;20519;-78
2021/08/26 12:16:27;;;;;;;2.33;0.32;;;;;;;19.49;100.00;100645.38;5019894;28;20049;-79
2021/08/26 12:19:31;;;;;;;5.35;0.52;;;;;;;19.58;100.00;100641.50;5032154;28;20056;-79
2021/08/26 12:22:33;;;;;;;1.75;0.55;;;;;;;19.79;100.00;100653.25;5032107;28;20053;-79
2021/08/26 12:25:38;;;;;;;3.75;0.68;;;;;;;20.01;100.00;100647.50;5031906;28;20107;-79
2021/08/26 12:29:07;;;;;;;0.65;0.20;;;;;;;20.36;100.00;100653.22;5032227;28;20056;-79
2021/08/26 12:32:36;;;;;;;0.43;0.20;;;;;;;20.50;100.00;100648.50;5031675;28;20071;-78
2021/08/26 12:35:53;;;;;;;1.98;0.17;;;;;;;20.56;100.00;100650.00;5032693;28;20056;-79
2021/08/26 12:38:56;;;;;;;1.17;0.50;;;;;;;20.55;100.00;100650.53;5032644;28;20148;-79
2021/08/26 12:42:16;;;;;;;0.85;0.20;;;;;;;20.47;100.00;100647.50;5032074;28;20068;-78
2021/08/26 12:45:20;;;;;;;4.15;0.10;;;;;;;20.67;100.00;100655.59;5035416;28;20128;-79
2021/08/26 12:48:30;;;;;;;0.10;0.08;;;;;;;21.07;100.00;100654.75;5035907;28;20048;-79
2021/08/26 12:51:34;;;;;;;0.40;0.10;;;;;;;21.48;100.00;100656.69;5035699;28;20111;-79
2021/08/26 12:54:45;;;;;;;1.02;0.30;;;;;;;21.79;100.00;100661.72;5035812;28;20103;-79
2021/08/26 12:57:49;;;;;;;0.45;0.10;;;;;;;22.00;100.00;100648.59;5035615;28;20493;-79
2021/08/26 13:00:52;;;;;;;1.65;0.57;;;;;;;21.92;100.00;100647.66;5035472;28;20407;-79
2021/08/26 13:03:57;;;;;;;0.35;0.10;;;;;;;21.81;100.00;100664.78;5035677;28;20108;-79
2021/08/26 13:07:00;;;;;;;1.40;0.32;;;;;;;21.74;100.00;100665.41;5035215;28;20044;-79
2021/08/26 13:10:07;;;;;;;3.05;0.15;;;;;;;21.73;100.00;100663.84;5035466;28;20498;-79
2021/08/26 13:13:16;;;;;;;0.45;0.20;;;;;;;21.57;100.00;100654.22;5035491;28;20503;-79
2021/08/26 13:16:19;;;;;;;2.78;0.20;;;;;;;21.31;100.00;100650.41;5034841;28;20044;-79
2021/08/26 13:19:23;;;;;;;2.40;0.13;;;;;;;20.87;100.00;100658.00;5035371;28;20518;-79
2021/08/26 13:22:31;;;;;;;0.52;0.08;;;;;;;20.32;100.00;100647.09;5035352;28;20044;-79
2021/08/26 13:25:36;;;;;;;2.90;0.65;;;;;;;20.07;100.00;100659.56;5034491;28;20056;-79
2021/08/26 13:28:39;;;;;;;0.40;0.35;;;;;;;19.87;100.00;100654.25;5035234;28;20052;-79
2021/08/26 13:31:42;;;;;;;0.65;0.10;;;;;;;19.59;100.00;100654.34;5035356;28;20053;-79
2021/08/26 13:34:45;;;;;;;1.42;0.20;;;;;;;19.31;100.00;100657.22;5034612;28;20044;-79
2021/08/26 13:37:48;;;;;;;0.47;0.13;;;;;;;19.27;100.00;100653.91;5034797;28;20048;-79
2021/08/26 13:40:51;;;;;;;2.70;0.30;;;;;;;19.10;100.00;100641.84;5034709;28;20094;-79
2021/08/26 13:43:53;;;;;;;0.75;0.40;;;;;;;19.00;100.00;100637.75;5034190;28;20052;-79
2021/08/26 13:46:56;;;;;;;1.77;0.70;;;;;;;18.99;100.00;100639.06;5034256;28;20048;-79
2021/08/26 13:49:59;;;;;;;11.50;0.47;;;;;;;19.02;100.00;100640.84;5034613;28;20095;-79
2021/08/26 13:53:03;;;;;;;0.88;0.28;;;;;;;18.94;100.00;100631.34;5034638;28;20044;-79
2021/08/26 13:56:06;;;;;;;1.85;0.80;;;;;;;19.17;100.00;100630.03;5033439;28;20190;-79
2021/08/26 13:59:09;;;;;;;3.55;0.68;;;;;;;19.52;100.00;100620.97;5034410;28;20087;-79
2021/08/26 14:02:12;;;;;;;1.55;0.28;;;;;;;19.90;100.00;100616.47;5022335;28;20151;-79
2021/08/26 14:05:15;;;;;;;1.33;0.30;;;;;;;20.06;100.00;100601.44;5034443;28;20063;-79
2021/08/26 14:08:18;;;;;;;2.17;0.52;;;;;;;20.30;100.00;100604.41;5034120;28;20052;-79
2021/08/26 14:11:21;;;;;;;1.75;0.30;;;;;;;20.34;100.00;100614.16;5034108;28;20104;-78